sensor_id;sensor_type;location;lat;lon;timestamp;P1;durP1;ratioP1;P2;durP2;ratioP2
67882;SDS011;54681;52.486;-1.890;2023-01-23T00:00:48;9.82;;;6.05;;
67882;SDS011;54681;52.486;-1.890;2023-01-23T00:03:13;9.55;;;6.10;;
67882;SDS011;54681;52.486;-1.890;2023-01-23T00:05:39;11.15;;;6.22;;
67882;SDS011;54681;52.486;-1.890;2023-01-23T00:08:04;9.68;;;5.80;;
67882;SDS011;54681;52.486;-1.890;2023-01-23T00:10:30;9.82;;;6.40;;
67882;SDS011;54681;52.486;-1.890;2023-01-23T00:12:55;8.20;;;5.75;;
67882;SDS011;54681;52.486;-1.890;2023-01-23T00:15:21;9.55;;;5.80;;
67882;SDS011;54681;52.486;-1.890;2023-01-23T00:17:47;11.07;;;6.22;;
67882;SDS011;54681;52.486;-1.890;2023-01-23T00:20:12;10.90;;;5.97;;
67882;SDS011;54681;52.486;-1.890;2023-01-23T00:22:38;9.38;;;5.80;;
67882;SDS011;54681;52.486;-1.890;2023-01-23T00:25:04;11.38;;;5.78;;
67882;SDS011;54681;52.486;-1.890;2023-01-23T00:27:30;8.90;;;5.80;;
67882;SDS011;54681;52.486;-1.890;2023-01-23T00:29:55;10.40;;;6.00;;
67882;SDS011;54681;52.486;-1.890;2023-01-23T00:32:21;9.52;;;5.93;;
67882;SDS011;54681;52.486;-1.890;2023-01-23T00:34:47;10.15;;;5.90;;
67882;SDS011;54681;52.486;-1.890;2023-01-23T00:37:12;9.60;;;5.65;;
67882;SDS011;54681;52.486;-1.890;2023-01-23T00:39:38;9.68;;;5.88;;
67882;SDS011;54681;52.486;-1.890;2023-01-23T00:42:03;8.98;;;5.47;;
67882;SDS011;54681;52.486;-1.890;2023-01-23T00:44:29;9.20;;;5.78;;
67882;SDS011;54681;52.486;-1.890;2023-01-23T00:46:55;8.80;;;5.50;;
67882;SDS011;54681;52.486;-1.890;2023-01-23T00:49:21;8.88;;;5.70;;
67882;SDS011;54681;52.486;-1.890;2023-01-23T00:51:47;10.75;;;5.80;;
67882;SDS011;54681;52.486;-1.890;2023-01-23T00:54:14;10.30;;;5.80;;
67882;SDS011;54681;52.486;-1.890;2023-01-23T00:56:40;8.43;;;5.50;;
67882;SDS011;54681;52.486;-1.890;2023-01-23T00:59:05;9.90;;;5.88;;
67882;SDS011;54681;52.486;-1.890;2023-01-23T01:01:31;10.70;;;5.93;;
67882;SDS011;54681;52.486;-1.890;2023-01-23T01:03:57;9.20;;;5.78;;
67882;SDS011;54681;52.486;-1.890;2023-01-23T01:06:23;8.82;;;5.55;;
67882;SDS011;54681;52.486;-1.890;2023-01-23T01:08:49;9.35;;;5.53;;
67882;SDS011;54681;52.486;-1.890;2023-01-23T01:11:14;8.20;;;5.22;;
67882;SDS011;54681;52.486;-1.890;2023-01-23T01:13:40;9.70;;;5.50;;
67882;SDS011;54681;52.486;-1.890;2023-01-23T01:16:06;11.48;;;5.60;;
67882;SDS011;54681;52.486;-1.890;2023-01-23T01:18:32;10.25;;;5.53;;
67882;SDS011;54681;52.486;-1.890;2023-01-23T01:20:57;9.18;;;5.30;;
67882;SDS011;54681;52.486;-1.890;2023-01-23T01:23:24;8.57;;;5.03;;
67882;SDS011;54681;52.486;-1.890;2023-01-23T01:25:49;8.88;;;5.15;;
67882;SDS011;54681;52.486;-1.890;2023-01-23T01:28:14;7.80;;;4.97;;
67882;SDS011;54681;52.486;-1.890;2023-01-23T01:30:40;9.65;;;5.47;;
67882;SDS011;54681;52.486;-1.890;2023-01-23T01:33:05;8.20;;;4.90;;
67882;SDS011;54681;52.486;-1.890;2023-01-23T01:35:32;9.80;;;4.93;;
67882;SDS011;54681;52.486;-1.890;2023-01-23T01:37:57;9.00;;;5.10;;
67882;SDS011;54681;52.486;-1.890;2023-01-23T01:40:25;9.07;;;5.05;;
67882;SDS011;54681;52.486;-1.890;2023-01-23T01:42:55;8.98;;;5.05;;
67882;SDS011;54681;52.486;-1.890;2023-01-23T01:48:32;8.55;;;5.30;;
67882;SDS011;54681;52.486;-1.890;2023-01-23T01:51:16;8.00;;;5.15;;
67882;SDS011;54681;52.486;-1.890;2023-01-23T01:53:48;8.35;;;5.25;;
67882;SDS011;54681;52.486;-1.890;2023-01-23T01:56:18;8.55;;;5.40;;
67882;SDS011;54681;52.486;-1.890;2023-01-23T01:58:45;9.60;;;5.30;;
67882;SDS011;54681;52.486;-1.890;2023-01-23T02:01:13;8.75;;;5.30;;
67882;SDS011;54681;52.486;-1.890;2023-01-23T02:03:38;9.38;;;5.13;;
67882;SDS011;54681;52.486;-1.890;2023-01-23T02:06:04;8.30;;;5.53;;
67882;SDS011;54681;52.486;-1.890;2023-01-23T02:11:10;9.10;;;5.20;;
67882;SDS011;54681;52.486;-1.890;2023-01-23T02:13:38;9.25;;;5.20;;
67882;SDS011;54681;52.486;-1.890;2023-01-23T02:16:05;8.50;;;5.13;;
67882;SDS011;54681;52.486;-1.890;2023-01-23T02:18:33;10.25;;;5.30;;
67882;SDS011;54681;52.486;-1.890;2023-01-23T02:21:00;9.13;;;5.22;;
67882;SDS011;54681;52.486;-1.890;2023-01-23T02:26:22;9.50;;;5.28;;
67882;SDS011;54681;52.486;-1.890;2023-01-23T02:28:52;8.75;;;5.18;;
67882;SDS011;54681;52.486;-1.890;2023-01-23T02:31:19;9.50;;;5.38;;
67882;SDS011;54681;52.486;-1.890;2023-01-23T02:33:49;9.25;;;5.53;;
67882;SDS011;54681;52.486;-1.890;2023-01-23T02:38:45;9.10;;;5.13;;
67882;SDS011;54681;52.486;-1.890;2023-01-23T02:41:17;8.68;;;5.10;;
67882;SDS011;54681;52.486;-1.890;2023-01-23T02:43:49;8.82;;;5.20;;
67882;SDS011;54681;52.486;-1.890;2023-01-23T02:46:16;7.82;;;5.10;;
67882;SDS011;54681;52.486;-1.890;2023-01-23T02:48:44;9.50;;;5.22;;
67882;SDS011;54681;52.486;-1.890;2023-01-23T02:51:11;8.20;;;5.20;;
67882;SDS011;54681;52.486;-1.890;2023-01-23T02:53:37;8.07;;;5.05;;
67882;SDS011;54681;52.486;-1.890;2023-01-23T02:56:03;9.02;;;5.07;;
67882;SDS011;54681;52.486;-1.890;2023-01-23T02:58:29;10.02;;;5.65;;
67882;SDS011;54681;52.486;-1.890;2023-01-23T03:01:07;7.97;;;4.85;;
67882;SDS011;54681;52.486;-1.890;2023-01-23T03:03:33;9.43;;;5.22;;
67882;SDS011;54681;52.486;-1.890;2023-01-23T03:05:58;7.63;;;4.90;;
67882;SDS011;54681;52.486;-1.890;2023-01-23T03:08:27;9.30;;;5.30;;
67882;SDS011;54681;52.486;-1.890;2023-01-23T03:10:57;10.13;;;5.50;;
67882;SDS011;54681;52.486;-1.890;2023-01-23T03:13:25;9.23;;;5.20;;
67882;SDS011;54681;52.486;-1.890;2023-01-23T03:15:50;8.40;;;4.95;;
67882;SDS011;54681;52.486;-1.890;2023-01-23T03:18:17;8.05;;;5.20;;
67882;SDS011;54681;52.486;-1.890;2023-01-23T03:20:43;9.95;;;5.38;;
67882;SDS011;54681;52.486;-1.890;2023-01-23T03:23:08;8.05;;;4.68;;
67882;SDS011;54681;52.486;-1.890;2023-01-23T03:25:34;9.07;;;5.15;;
67882;SDS011;54681;52.486;-1.890;2023-01-23T03:27:59;8.27;;;5.38;;
67882;SDS011;54681;52.486;-1.890;2023-01-23T03:30:25;8.35;;;5.30;;
67882;SDS011;54681;52.486;-1.890;2023-01-23T03:32:51;9.40;;;5.70;;
67882;SDS011;54681;52.486;-1.890;2023-01-23T03:35:17;9.57;;;5.63;;
67882;SDS011;54681;52.486;-1.890;2023-01-23T03:37:45;9.60;;;5.47;;
67882;SDS011;54681;52.486;-1.890;2023-01-23T03:40:14;10.15;;;5.93;;
67882;SDS011;54681;52.486;-1.890;2023-01-23T03:42:57;8.82;;;5.30;;
67882;SDS011;54681;52.486;-1.890;2023-01-23T03:45:22;8.73;;;5.47;;
67882;SDS011;54681;52.486;-1.890;2023-01-23T03:47:48;9.27;;;5.40;;
67882;SDS011;54681;52.486;-1.890;2023-01-23T03:50:13;9.05;;;5.53;;
67882;SDS011;54681;52.486;-1.890;2023-01-23T03:52:39;8.82;;;5.47;;
67882;SDS011;54681;52.486;-1.890;2023-01-23T03:55:05;8.88;;;5.13;;
67882;SDS011;54681;52.486;-1.890;2023-01-23T03:57:31;11.07;;;5.55;;
67882;SDS011;54681;52.486;-1.890;2023-01-23T03:59:56;9.00;;;5.55;;
67882;SDS011;54681;52.486;-1.890;2023-01-23T04:02:21;8.95;;;5.38;;
67882;SDS011;54681;52.486;-1.890;2023-01-23T04:04:48;9.18;;;5.78;;
67882;SDS011;54681;52.486;-1.890;2023-01-23T04:07:14;8.32;;;5.45;;
67882;SDS011;54681;52.486;-1.890;2023-01-23T04:09:39;10.38;;;5.60;;
67882;SDS011;54681;52.486;-1.890;2023-01-23T04:12:05;8.80;;;5.50;;
67882;SDS011;54681;52.486;-1.890;2023-01-23T04:14:30;9.45;;;5.65;;
67882;SDS011;54681;52.486;-1.890;2023-01-23T04:17:01;10.93;;;6.00;;
67882;SDS011;54681;52.486;-1.890;2023-01-23T04:19:27;9.32;;;5.50;;
67882;SDS011;54681;52.486;-1.890;2023-01-23T04:21:52;8.93;;;5.72;;
67882;SDS011;54681;52.486;-1.890;2023-01-23T04:24:17;8.88;;;5.45;;
67882;SDS011;54681;52.486;-1.890;2023-01-23T04:26:43;10.60;;;5.82;;
67882;SDS011;54681;52.486;-1.890;2023-01-23T04:29:09;8.88;;;5.65;;
67882;SDS011;54681;52.486;-1.890;2023-01-23T04:31:34;9.63;;;5.47;;
67882;SDS011;54681;52.486;-1.890;2023-01-23T04:34:00;9.25;;;5.60;;
67882;SDS011;54681;52.486;-1.890;2023-01-23T04:36:25;10.60;;;6.00;;
67882;SDS011;54681;52.486;-1.890;2023-01-23T04:38:51;9.90;;;5.85;;
67882;SDS011;54681;52.486;-1.890;2023-01-23T04:41:18;9.48;;;5.70;;
67882;SDS011;54681;52.486;-1.890;2023-01-23T04:46:11;9.63;;;5.95;;
67882;SDS011;54681;52.486;-1.890;2023-01-23T04:48:36;10.45;;;6.00;;
67882;SDS011;54681;52.486;-1.890;2023-01-23T04:51:02;8.07;;;5.20;;
67882;SDS011;54681;52.486;-1.890;2023-01-23T04:53:27;8.95;;;6.10;;
67882;SDS011;54681;52.486;-1.890;2023-01-23T04:55:53;8.70;;;5.38;;
67882;SDS011;54681;52.486;-1.890;2023-01-23T04:58:18;9.93;;;6.03;;
67882;SDS011;54681;52.486;-1.890;2023-01-23T05:00:44;9.27;;;5.80;;
67882;SDS011;54681;52.486;-1.890;2023-01-23T05:03:10;9.70;;;5.88;;
67882;SDS011;54681;52.486;-1.890;2023-01-23T05:05:36;9.75;;;5.80;;
67882;SDS011;54681;52.486;-1.890;2023-01-23T05:08:02;10.15;;;5.70;;
67882;SDS011;54681;52.486;-1.890;2023-01-23T05:10:27;9.93;;;5.88;;
67882;SDS011;54681;52.486;-1.890;2023-01-23T05:12:53;9.55;;;5.68;;
67882;SDS011;54681;52.486;-1.890;2023-01-23T05:15:19;11.88;;;5.78;;
67882;SDS011;54681;52.486;-1.890;2023-01-23T05:17:45;8.77;;;5.35;;
67882;SDS011;54681;52.486;-1.890;2023-01-23T05:20:11;9.20;;;5.80;;
67882;SDS011;54681;52.486;-1.890;2023-01-23T05:22:37;10.50;;;5.82;;
67882;SDS011;54681;52.486;-1.890;2023-01-23T05:25:03;9.93;;;6.25;;
67882;SDS011;54681;52.486;-1.890;2023-01-23T05:27:29;9.13;;;5.53;;
67882;SDS011;54681;52.486;-1.890;2023-01-23T05:29:54;10.25;;;5.95;;
67882;SDS011;54681;52.486;-1.890;2023-01-23T05:32:20;8.50;;;5.70;;
67882;SDS011;54681;52.486;-1.890;2023-01-23T05:34:45;9.32;;;6.05;;
67882;SDS011;54681;52.486;-1.890;2023-01-23T05:37:11;9.43;;;5.68;;
67882;SDS011;54681;52.486;-1.890;2023-01-23T05:39:36;8.82;;;5.78;;
67882;SDS011;54681;52.486;-1.890;2023-01-23T05:42:02;9.23;;;5.85;;
67882;SDS011;54681;52.486;-1.890;2023-01-23T05:44:27;9.80;;;5.70;;
67882;SDS011;54681;52.486;-1.890;2023-01-23T05:46:54;10.32;;;5.80;;
67882;SDS011;54681;52.486;-1.890;2023-01-23T05:49:19;9.50;;;5.68;;
67882;SDS011;54681;52.486;-1.890;2023-01-23T05:51:45;9.80;;;6.05;;
67882;SDS011;54681;52.486;-1.890;2023-01-23T05:54:10;9.50;;;5.65;;
67882;SDS011;54681;52.486;-1.890;2023-01-23T05:56:36;9.38;;;5.50;;
67882;SDS011;54681;52.486;-1.890;2023-01-23T05:59:01;9.43;;;6.10;;
67882;SDS011;54681;52.486;-1.890;2023-01-23T06:01:29;9.10;;;5.45;;
67882;SDS011;54681;52.486;-1.890;2023-01-23T06:03:54;9.27;;;5.97;;
67882;SDS011;54681;52.486;-1.890;2023-01-23T06:06:20;10.13;;;5.40;;
67882;SDS011;54681;52.486;-1.890;2023-01-23T06:08:45;9.38;;;5.63;;
67882;SDS011;54681;52.486;-1.890;2023-01-23T06:11:11;9.48;;;5.80;;
67882;SDS011;54681;52.486;-1.890;2023-01-23T06:13:36;9.40;;;5.57;;
67882;SDS011;54681;52.486;-1.890;2023-01-23T06:16:02;9.52;;;5.55;;
67882;SDS011;54681;52.486;-1.890;2023-01-23T06:18:28;9.45;;;5.70;;
67882;SDS011;54681;52.486;-1.890;2023-01-23T06:20:57;10.00;;;5.63;;
67882;SDS011;54681;52.486;-1.890;2023-01-23T06:23:24;8.95;;;5.70;;
67882;SDS011;54681;52.486;-1.890;2023-01-23T06:25:50;12.18;;;5.68;;
67882;SDS011;54681;52.486;-1.890;2023-01-23T06:28:15;9.00;;;5.85;;
67882;SDS011;54681;52.486;-1.890;2023-01-23T06:30:41;9.45;;;5.90;;
67882;SDS011;54681;52.486;-1.890;2023-01-23T06:33:06;9.43;;;6.00;;
67882;SDS011;54681;52.486;-1.890;2023-01-23T06:35:32;10.15;;;6.05;;
67882;SDS011;54681;52.486;-1.890;2023-01-23T06:37:57;9.65;;;5.88;;
67882;SDS011;54681;52.486;-1.890;2023-01-23T06:40:22;10.50;;;6.35;;
67882;SDS011;54681;52.486;-1.890;2023-01-23T06:42:48;9.07;;;6.03;;
67882;SDS011;54681;52.486;-1.890;2023-01-23T06:45:15;11.52;;;5.93;;
67882;SDS011;54681;52.486;-1.890;2023-01-23T06:47:40;12.52;;;6.00;;
67882;SDS011;54681;52.486;-1.890;2023-01-23T06:50:06;9.80;;;6.07;;
67882;SDS011;54681;52.486;-1.890;2023-01-23T06:52:32;9.32;;;5.82;;
67882;SDS011;54681;52.486;-1.890;2023-01-23T06:54:57;9.75;;;5.95;;
67882;SDS011;54681;52.486;-1.890;2023-01-23T06:57:23;8.23;;;5.32;;
67882;SDS011;54681;52.486;-1.890;2023-01-23T06:59:48;9.52;;;5.80;;
67882;SDS011;54681;52.486;-1.890;2023-01-23T07:02:14;9.40;;;5.93;;
67882;SDS011;54681;52.486;-1.890;2023-01-23T07:04:39;10.68;;;6.10;;
67882;SDS011;54681;52.486;-1.890;2023-01-23T07:07:05;9.48;;;6.18;;
67882;SDS011;54681;52.486;-1.890;2023-01-23T07:09:30;11.05;;;6.05;;
67882;SDS011;54681;52.486;-1.890;2023-01-23T07:11:56;10.75;;;6.00;;
67882;SDS011;54681;52.486;-1.890;2023-01-23T07:14:22;9.82;;;5.93;;
67882;SDS011;54681;52.486;-1.890;2023-01-23T07:16:47;8.70;;;5.68;;
67882;SDS011;54681;52.486;-1.890;2023-01-23T07:19:13;9.40;;;5.75;;
67882;SDS011;54681;52.486;-1.890;2023-01-23T07:21:38;9.60;;;5.93;;
67882;SDS011;54681;52.486;-1.890;2023-01-23T07:24:04;9.15;;;5.95;;
67882;SDS011;54681;52.486;-1.890;2023-01-23T07:26:29;8.73;;;5.70;;
67882;SDS011;54681;52.486;-1.890;2023-01-23T07:28:55;8.80;;;5.65;;
67882;SDS011;54681;52.486;-1.890;2023-01-23T07:31:21;8.27;;;5.40;;
67882;SDS011;54681;52.486;-1.890;2023-01-23T07:33:46;9.88;;;5.85;;
67882;SDS011;54681;52.486;-1.890;2023-01-23T07:36:12;8.52;;;5.50;;
67882;SDS011;54681;52.486;-1.890;2023-01-23T07:38:38;9.70;;;5.95;;
67882;SDS011;54681;52.486;-1.890;2023-01-23T07:41:05;9.40;;;5.65;;
67882;SDS011;54681;52.486;-1.890;2023-01-23T07:43:30;9.32;;;5.70;;
67882;SDS011;54681;52.486;-1.890;2023-01-23T07:45:58;9.57;;;5.57;;
67882;SDS011;54681;52.486;-1.890;2023-01-23T07:48:24;11.23;;;5.70;;
67882;SDS011;54681;52.486;-1.890;2023-01-23T07:50:49;9.18;;;5.88;;
67882;SDS011;54681;52.486;-1.890;2023-01-23T07:53:15;9.75;;;5.60;;
67882;SDS011;54681;52.486;-1.890;2023-01-23T07:55:40;8.82;;;5.50;;
67882;SDS011;54681;52.486;-1.890;2023-01-23T07:58:05;8.60;;;5.47;;
67882;SDS011;54681;52.486;-1.890;2023-01-23T08:00:31;9.50;;;5.82;;
67882;SDS011;54681;52.486;-1.890;2023-01-23T08:02:56;9.98;;;6.32;;
67882;SDS011;54681;52.486;-1.890;2023-01-23T08:05:22;9.18;;;5.65;;
67882;SDS011;54681;52.486;-1.890;2023-01-23T08:07:48;11.10;;;6.38;;
67882;SDS011;54681;52.486;-1.890;2023-01-23T08:10:13;8.07;;;5.40;;
67882;SDS011;54681;52.486;-1.890;2023-01-23T08:12:39;10.23;;;5.90;;
67882;SDS011;54681;52.486;-1.890;2023-01-23T08:15:05;8.90;;;5.72;;
67882;SDS011;54681;52.486;-1.890;2023-01-23T08:17:31;10.70;;;6.20;;
67882;SDS011;54681;52.486;-1.890;2023-01-23T08:19:56;9.48;;;6.00;;
67882;SDS011;54681;52.486;-1.890;2023-01-23T08:22:22;9.80;;;6.13;;
67882;SDS011;54681;52.486;-1.890;2023-01-23T08:24:47;10.50;;;6.20;;
67882;SDS011;54681;52.486;-1.890;2023-01-23T08:27:13;9.07;;;5.90;;
67882;SDS011;54681;52.486;-1.890;2023-01-23T08:29:38;9.48;;;5.90;;
67882;SDS011;54681;52.486;-1.890;2023-01-23T08:32:04;9.73;;;5.80;;
67882;SDS011;54681;52.486;-1.890;2023-01-23T08:34:29;10.90;;;6.32;;
67882;SDS011;54681;52.486;-1.890;2023-01-23T08:36:55;9.88;;;5.93;;
67882;SDS011;54681;52.486;-1.890;2023-01-23T08:39:21;9.60;;;6.35;;
67882;SDS011;54681;52.486;-1.890;2023-01-23T08:41:47;8.90;;;5.72;;
67882;SDS011;54681;52.486;-1.890;2023-01-23T08:44:12;9.07;;;5.97;;
67882;SDS011;54681;52.486;-1.890;2023-01-23T08:46:37;9.70;;;6.28;;
67882;SDS011;54681;52.486;-1.890;2023-01-23T08:49:03;10.70;;;5.97;;
67882;SDS011;54681;52.486;-1.890;2023-01-23T08:51:29;9.18;;;5.90;;
67882;SDS011;54681;52.486;-1.890;2023-01-23T08:53:55;9.48;;;6.03;;
67882;SDS011;54681;52.486;-1.890;2023-01-23T08:56:21;9.27;;;5.70;;
67882;SDS011;54681;52.486;-1.890;2023-01-23T08:58:47;9.88;;;5.95;;
67882;SDS011;54681;52.486;-1.890;2023-01-23T09:01:14;10.15;;;6.10;;
67882;SDS011;54681;52.486;-1.890;2023-01-23T09:03:42;10.68;;;5.90;;
67882;SDS011;54681;52.486;-1.890;2023-01-23T09:06:08;12.00;;;6.40;;
67882;SDS011;54681;52.486;-1.890;2023-01-23T09:08:38;9.73;;;6.20;;
67882;SDS011;54681;52.486;-1.890;2023-01-23T09:11:04;11.02;;;5.72;;
67882;SDS011;54681;52.486;-1.890;2023-01-23T09:13:31;9.45;;;5.72;;
67882;SDS011;54681;52.486;-1.890;2023-01-23T09:15:57;9.57;;;6.20;;
67882;SDS011;54681;52.486;-1.890;2023-01-23T09:18:23;8.57;;;5.25;;
67882;SDS011;54681;52.486;-1.890;2023-01-23T09:20:49;13.25;;;5.95;;
67882;SDS011;54681;52.486;-1.890;2023-01-23T09:23:16;9.40;;;5.85;;
67882;SDS011;54681;52.486;-1.890;2023-01-23T09:25:42;9.65;;;5.63;;
67882;SDS011;54681;52.486;-1.890;2023-01-23T09:28:07;10.43;;;6.15;;
67882;SDS011;54681;52.486;-1.890;2023-01-23T09:30:33;11.15;;;5.65;;
67882;SDS011;54681;52.486;-1.890;2023-01-23T09:32:59;9.95;;;5.82;;
67882;SDS011;54681;52.486;-1.890;2023-01-23T09:35:24;10.02;;;5.70;;
67882;SDS011;54681;52.486;-1.890;2023-01-23T09:37:50;9.80;;;6.00;;
67882;SDS011;54681;52.486;-1.890;2023-01-23T09:40:31;10.25;;;5.80;;
67882;SDS011;54681;52.486;-1.890;2023-01-23T09:43:22;9.55;;;5.70;;
67882;SDS011;54681;52.486;-1.890;2023-01-23T09:46:06;9.43;;;5.20;;
67882;SDS011;54681;52.486;-1.890;2023-01-23T09:48:50;10.68;;;5.60;;
67882;SDS011;54681;52.486;-1.890;2023-01-23T09:57:14;8.45;;;5.32;;
67882;SDS011;54681;52.486;-1.890;2023-01-23T09:59:43;8.55;;;5.20;;
67882;SDS011;54681;52.486;-1.890;2023-01-23T10:02:16;12.68;;;5.72;;
67882;SDS011;54681;52.486;-1.890;2023-01-23T10:04:48;10.07;;;5.65;;
67882;SDS011;54681;52.486;-1.890;2023-01-23T10:08:02;9.23;;;5.00;;
67882;SDS011;54681;52.486;-1.890;2023-01-23T10:10:31;10.93;;;5.32;;
67882;SDS011;54681;52.486;-1.890;2023-01-23T10:13:19;9.15;;;5.20;;
67882;SDS011;54681;52.486;-1.890;2023-01-23T10:16:01;8.80;;;5.18;;
67882;SDS011;54681;52.486;-1.890;2023-01-23T10:18:41;10.70;;;5.18;;
67882;SDS011;54681;52.486;-1.890;2023-01-23T10:26:48;8.52;;;5.07;;
67882;SDS011;54681;52.486;-1.890;2023-01-23T10:32:02;9.40;;;5.30;;
67882;SDS011;54681;52.486;-1.890;2023-01-23T10:34:34;8.33;;;4.93;;
67882;SDS011;54681;52.486;-1.890;2023-01-23T10:37:15;11.02;;;4.90;;
67882;SDS011;54681;52.486;-1.890;2023-01-23T10:39:48;7.90;;;4.80;;
67882;SDS011;54681;52.486;-1.890;2023-01-23T10:42:20;8.10;;;4.57;;
67882;SDS011;54681;52.486;-1.890;2023-01-23T10:47:17;7.78;;;4.68;;
67882;SDS011;54681;52.486;-1.890;2023-01-23T10:49:48;8.02;;;4.57;;
67882;SDS011;54681;52.486;-1.890;2023-01-23T10:52:28;8.38;;;4.43;;
67882;SDS011;54681;52.486;-1.890;2023-01-23T10:54:56;7.10;;;4.47;;
67882;SDS011;54681;52.486;-1.890;2023-01-23T10:57:22;8.07;;;4.47;;
67882;SDS011;54681;52.486;-1.890;2023-01-23T10:59:59;7.70;;;4.32;;
67882;SDS011;54681;52.486;-1.890;2023-01-23T11:02:30;8.37;;;4.30;;
67882;SDS011;54681;52.486;-1.890;2023-01-23T11:07:25;7.57;;;4.28;;
67882;SDS011;54681;52.486;-1.890;2023-01-23T11:09:57;8.27;;;4.20;;
67882;SDS011;54681;52.486;-1.890;2023-01-23T11:12:26;7.95;;;4.25;;
67882;SDS011;54681;52.486;-1.890;2023-01-23T11:15:12;7.68;;;4.20;;
67882;SDS011;54681;52.486;-1.890;2023-01-23T11:17:47;7.82;;;4.03;;
67882;SDS011;54681;52.486;-1.890;2023-01-23T11:20:22;6.38;;;3.95;;
67882;SDS011;54681;52.486;-1.890;2023-01-23T11:22:59;6.95;;;4.00;;
67882;SDS011;54681;52.486;-1.890;2023-01-23T11:25:44;6.65;;;3.90;;
67882;SDS011;54681;52.486;-1.890;2023-01-23T11:30:56;7.05;;;3.90;;
67882;SDS011;54681;52.486;-1.890;2023-01-23T11:36:35;6.85;;;3.70;;
67882;SDS011;54681;52.486;-1.890;2023-01-23T11:39:10;7.68;;;3.63;;
67882;SDS011;54681;52.486;-1.890;2023-01-23T11:41:45;6.63;;;3.83;;
67882;SDS011;54681;52.486;-1.890;2023-01-23T11:44:15;7.10;;;3.80;;
67882;SDS011;54681;52.486;-1.890;2023-01-23T11:52:34;6.65;;;3.92;;
67882;SDS011;54681;52.486;-1.890;2023-01-23T11:55:28;8.93;;;3.90;;
67882;SDS011;54681;52.486;-1.890;2023-01-23T12:04:09;6.07;;;3.60;;
67882;SDS011;54681;52.486;-1.890;2023-01-23T12:06:56;6.75;;;3.67;;
67882;SDS011;54681;52.486;-1.890;2023-01-23T12:09:46;5.65;;;3.47;;
67882;SDS011;54681;52.486;-1.890;2023-01-23T12:13:00;5.22;;;3.40;;
67882;SDS011;54681;52.486;-1.890;2023-01-23T12:15:30;6.82;;;3.45;;
67882;SDS011;54681;52.486;-1.890;2023-01-23T12:20:55;7.63;;;3.50;;
67882;SDS011;54681;52.486;-1.890;2023-01-23T12:26:20;6.22;;;3.47;;
67882;SDS011;54681;52.486;-1.890;2023-01-23T12:28:54;6.80;;;3.70;;
67882;SDS011;54681;52.486;-1.890;2023-01-23T12:31:41;7.75;;;3.60;;
67882;SDS011;54681;52.486;-1.890;2023-01-23T12:37:24;7.03;;;3.60;;
67882;SDS011;54681;52.486;-1.890;2023-01-23T12:40:16;8.10;;;3.45;;
67882;SDS011;54681;52.486;-1.890;2023-01-23T12:42:51;9.90;;;3.60;;
67882;SDS011;54681;52.486;-1.890;2023-01-23T12:45:27;6.53;;;3.63;;
67882;SDS011;54681;52.486;-1.890;2023-01-23T12:50:41;6.95;;;3.55;;
67882;SDS011;54681;52.486;-1.890;2023-01-23T12:53:12;5.22;;;3.40;;
67882;SDS011;54681;52.486;-1.890;2023-01-23T12:55:49;8.82;;;3.40;;
67882;SDS011;54681;52.486;-1.890;2023-01-23T12:58:19;6.25;;;3.35;;
67882;SDS011;54681;52.486;-1.890;2023-01-23T13:00:51;6.85;;;3.67;;
67882;SDS011;54681;52.486;-1.890;2023-01-23T13:12:20;7.90;;;3.33;;
67882;SDS011;54681;52.486;-1.890;2023-01-23T13:14:48;7.68;;;3.17;;
67882;SDS011;54681;52.486;-1.890;2023-01-23T13:20:24;7.90;;;3.28;;
67882;SDS011;54681;52.486;-1.890;2023-01-23T13:26:10;6.18;;;2.95;;
67882;SDS011;54681;52.486;-1.890;2023-01-23T13:28:54;5.53;;;3.05;;
67882;SDS011;54681;52.486;-1.890;2023-01-23T13:31:38;7.07;;;3.50;;
67882;SDS011;54681;52.486;-1.890;2023-01-23T13:42:44;6.57;;;2.97;;
67882;SDS011;54681;52.486;-1.890;2023-01-23T13:45:16;6.00;;;2.85;;
67882;SDS011;54681;52.486;-1.890;2023-01-23T13:48:02;7.28;;;2.92;;
67882;SDS011;54681;52.486;-1.890;2023-01-23T13:50:52;7.25;;;3.00;;
67882;SDS011;54681;52.486;-1.890;2023-01-23T13:53:23;7.50;;;3.08;;
67882;SDS011;54681;52.486;-1.890;2023-01-23T13:56:02;7.25;;;3.10;;
67882;SDS011;54681;52.486;-1.890;2023-01-23T13:58:42;9.45;;;2.95;;
67882;SDS011;54681;52.486;-1.890;2023-01-23T14:01:09;7.38;;;3.00;;
67882;SDS011;54681;52.486;-1.890;2023-01-23T14:03:53;5.13;;;2.80;;
67882;SDS011;54681;52.486;-1.890;2023-01-23T14:06:42;6.30;;;2.95;;
67882;SDS011;54681;52.486;-1.890;2023-01-23T14:09:23;6.70;;;3.00;;
67882;SDS011;54681;52.486;-1.890;2023-01-23T14:11:59;7.70;;;3.05;;
67882;SDS011;54681;52.486;-1.890;2023-01-23T14:14:35;8.43;;;3.17;;
67882;SDS011;54681;52.486;-1.890;2023-01-23T14:17:12;9.38;;;3.03;;
67882;SDS011;54681;52.486;-1.890;2023-01-23T14:19:38;4.85;;;2.80;;
67882;SDS011;54681;52.486;-1.890;2023-01-23T14:22:17;5.88;;;2.83;;
67882;SDS011;54681;52.486;-1.890;2023-01-23T14:24:44;6.65;;;2.80;;
67882;SDS011;54681;52.486;-1.890;2023-01-23T14:27:19;5.97;;;2.93;;
67882;SDS011;54681;52.486;-1.890;2023-01-23T14:30:00;7.93;;;2.95;;
67882;SDS011;54681;52.486;-1.890;2023-01-23T14:32:29;6.18;;;3.20;;
67882;SDS011;54681;52.486;-1.890;2023-01-23T14:34:56;6.13;;;2.75;;
67882;SDS011;54681;52.486;-1.890;2023-01-23T14:37:21;7.43;;;3.05;;
67882;SDS011;54681;52.486;-1.890;2023-01-23T14:39:47;7.47;;;2.80;;
67882;SDS011;54681;52.486;-1.890;2023-01-23T14:42:20;6.35;;;2.90;;
67882;SDS011;54681;52.486;-1.890;2023-01-23T14:44:50;9.40;;;3.13;;
67882;SDS011;54681;52.486;-1.890;2023-01-23T14:47:24;7.07;;;2.80;;
67882;SDS011;54681;52.486;-1.890;2023-01-23T14:49:55;5.82;;;3.00;;
67882;SDS011;54681;52.486;-1.890;2023-01-23T14:52:23;6.03;;;3.03;;
